| time (UTC) | temp C | wind direction | speed KPH | gust KPH | rain 1hr cm | rain 24hr cm | rain mn cm | humidity % | barometer mb |
| 20260510092018 | 13 | 329 | 16.1 | 27.4 | 0.00 | 0.10 | 0.10 | 71 | 1016.0 |
| 20260510091018 | 13 | 316 | 8.0 | 22.5 | 0.00 | 0.10 | 0.10 | 72 | 1016.2 |
| 20260510090018 | 13 | 358 | 9.7 | 17.7 | 0.00 | 0.10 | 0.10 | 72 | 1016.2 |
| 20260510085018 | 13 | 315 | 11.3 | 22.5 | 0.00 | 0.10 | 0.10 | 73 | 1016.1 |
| 20260510084038 | 12 | 278 | 8.0 | 16.1 | 0.00 | 0.10 | 0.10 | 75 | 1016.1 |
| 20260510083058 | 12 | 320 | 11.3 | 22.5 | 0.00 | 0.10 | 0.10 | 76 | 1016.2 |
| 20260510082019 | 12 | 327 | 9.7 | 16.1 | 0.00 | 0.10 | 0.10 | 77 | 1016.3 |
| 20260510081018 | 12 | 0 | 6.4 | 11.3 | 0.00 | 0.10 | 0.10 | 77 | 1016.3 |
| 20260510080019 | 12 | 347 | 9.7 | 16.1 | 0.00 | 0.10 | 0.10 | 77 | 1016.3 |
| 20260510075042 | 11 | 15 | 6.4 | 11.3 | 0.00 | 0.10 | 0.10 | 77 | 1016.4 |
| 20260510074019 | 11 | 335 | 8.0 | 19.3 | 0.00 | 0.10 | 0.10 | 78 | 1016.4 |
| 20260510073019 | 11 | 343 | 6.4 | 17.7 | 0.00 | 0.10 | 0.10 | 79 | 1016.4 |
| 20260510072019 | 11 | 328 | 8.0 | 19.3 | 0.00 | 0.10 | 0.10 | 80 | 1016.6 |
| 20260510071019 | 11 | 330 | 12.9 | 24.1 | 0.00 | 0.10 | 0.10 | 81 | 1016.6 |
| 20260510070019 | 11 | 354 | 8.0 | 16.1 | 0.00 | 0.10 | 0.10 | 82 | 1016.5 |
| 20260510065019 | 11 | 345 | 8.0 | 17.7 | 0.00 | 0.10 | 0.10 | 83 | 1016.6 |
| 20260510064020 | 11 | 342 | 11.3 | 22.5 | 0.00 | 0.10 | 0.10 | 84 | 1016.6 |
| 20260510063020 | 11 | 331 | 6.4 | 17.7 | 0.00 | 0.10 | 0.10 | 84 | 1016.6 |
| 20260510062020 | 11 | 342 | 11.3 | 19.3 | 0.00 | 0.10 | 0.10 | 85 | 1016.6 |
| 20260510060020 | 11 | 314 | 8.0 | 19.3 | 0.00 | 0.10 | 0.10 | 86 | 1016.6 |
| 20260510055040 | 10 | 338 | 6.4 | 12.9 | 0.00 | 0.10 | 0.10 | 87 | 1016.6 |
| 20260510054023 | 10 | 289 | 4.8 | 11.3 | 0.03 | 0.10 | 0.10 | 87 | 1016.6 |
| 20260510053020 | 10 | 201 | 8.0 | 16.1 | 0.03 | 0.10 | 0.10 | 87 | 1016.5 |
| 20260510052020 | 10 | 255 | 8.0 | 14.5 | 0.05 | 0.10 | 0.10 | 87 | 1016.5 |
| 20260510051024 | 10 | 7 | 8.0 | 12.9 | 0.05 | 0.10 | 0.10 | 88 | 1016.5 |
| 20260510050024 | 11 | 294 | 8.0 | 14.5 | 0.05 | 0.10 | 0.10 | 87 | 1016.6 |
| 20260510045024 | 11 | 84 | 4.8 | 11.3 | 0.05 | 0.10 | 0.10 | 87 | 1016.7 |
| 20260510044024 | 11 | 312 | 4.8 | 12.9 | 0.03 | 0.08 | 0.08 | 87 | 1016.6 |
| 20260510043021 | 11 | 350 | 6.4 | 19.3 | 0.00 | 0.08 | 0.08 | 86 | 1016.7 |
| 20260510042045 | 11 | 6 | 8.0 | 14.5 | 0.00 | 0.05 | 0.05 | 85 | 1016.6 |
| 20260510041024 | 11 | 9 | 4.8 | 9.7 | 0.00 | 0.05 | 0.05 | 85 | 1016.7 |
| 20260510040021 | 11 | 348 | 9.7 | 24.1 | 0.00 | 0.05 | 0.05 | 84 | 1016.8 |
| 20260510035021 | 11 | 352 | 8.0 | 17.7 | 0.00 | 0.05 | 0.05 | 83 | 1016.7 |
| 20260510034021 | 11 | 335 | 8.0 | 12.9 | 0.00 | 0.05 | 0.05 | 81 | 1016.7 |
| 20260510033024 | 11 | 348 | 4.8 | 12.9 | 0.00 | 0.05 | 0.05 | 80 | 1016.6 |
| 20260510032024 | 11 | 14 | 6.4 | 9.7 | 0.00 | 0.05 | 0.05 | 79 | 1016.7 |
| 20260510031022 | 11 | 18 | 8.0 | 17.7 | 0.00 | 0.05 | 0.05 | 78 | 1016.6 |
| 20260510030025 | 11 | 24 | 6.4 | 12.9 | 0.00 | 0.05 | 0.05 | 77 | 1016.6 |
| 20260510025022 | 11 | 13 | 4.8 | 16.1 | 0.00 | 0.05 | 0.05 | 77 | 1016.8 |
| 20260510024024 | 11 | 21 | 3.2 | 9.7 | 0.00 | 0.05 | 0.05 | 76 | 1016.8 |
| 20260510023025 | 11 | 27 | 4.8 | 14.5 | 0.00 | 0.05 | 0.05 | 76 | 1016.8 |
| 20260510022045 | 11 | 160 | 3.2 | 6.4 | 0.03 | 0.05 | 0.05 | 76 | 1016.8 |
| 20260510021025 | 11 | 65 | 4.8 | 9.7 | 0.05 | 0.05 | 0.05 | 76 | 1016.8 |
| 20260510020017 | 11 | 98 | 4.8 | 14.5 | 0.05 | 0.05 | 0.05 | 76 | 1016.9 |
| 20260510015026 | 11 | 106 | 8.0 | 12.9 | 0.05 | 0.05 | 0.05 | 76 | 1016.8 |
| 20260510014022 | 11 | 24 | 6.4 | 14.5 | 0.05 | 0.05 | 0.05 | 76 | 1017.0 |
| 20260510013023 | 11 | 89 | 6.4 | 14.5 | 0.05 | 0.05 | 0.05 | 76 | 1017.1 |
| 20260510012023 | 12 | 106 | 6.4 | 16.1 | 0.05 | 0.05 | 0.05 | 75 | 1017.1 |
| 20260510011017 | 12 | 86 | 9.7 | 20.9 | 0.00 | 0.00 | 0.00 | 73 | 1017.0 |
| 20260510010025 | 12 | 96 | 9.7 | 14.5 | 0.00 | 0.00 | 0.00 | 72 | 1016.9 |
| 20260510005017 | 12 | 92 | 9.7 | 22.5 | 0.00 | 0.00 | 0.00 | 71 | 1016.9 |
| 20260510004037 | 12 | 139 | 6.4 | 17.7 | 0.00 | 0.00 | 0.00 | 71 | 1016.8 |
| 20260510003117 | 12 | 127 | 6.4 | 16.1 | 0.00 | 0.00 | 0.00 | 71 | 1016.8 |
| 20260510002017 | 12 | 129 | 6.4 | 16.1 | 0.00 | 0.00 | 0.00 | 70 | 1016.8 |
| 20260510001024 | 12 | 114 | 9.7 | 29.0 | 0.00 | 0.00 | 0.00 | 68 | 1016.8 |
| 20260510000024 | 12 | 103 | 8.0 | 17.7 | 0.00 | 0.00 | 0.00 | 67 | 1017.0 |
| 20260509235117 | 12 | 192 | 6.4 | 12.9 | 0.00 | 0.00 | 0.00 | 66 | 1017.0 |
| 20260509234018 | 12 | 101 | 9.7 | 25.7 | 0.00 | 0.00 | 0.00 | 65 | 1017.0 |
| 20260509233017 | 12 | 104 | 9.7 | 22.5 | 0.00 | 0.00 | 0.00 | 64 | 1017.0 |
| 20260509232018 | 12 | 163 | 4.8 | 16.1 | 0.00 | 0.00 | 0.00 | 64 | 1017.1 |
| 20260509231017 | 12 | 136 | 8.0 | 17.7 | 0.00 | 0.00 | 0.00 | 63 | 1017.1 |
| 20260509230018 | 12 | 124 | 9.7 | 16.1 | 0.00 | 0.00 | 0.00 | 62 | 1017.0 |
| 20260509225018 | 12 | 128 | 8.0 | 22.5 | 0.00 | 0.00 | 0.00 | 60 | 1017.1 |
| 20260509224018 | 12 | 175 | 8.0 | 17.7 | 0.00 | 0.00 | 0.00 | 59 | 1017.0 |
| 20260509223018 | 13 | 128 | 9.7 | 19.3 | 0.00 | 0.00 | 0.00 | 58 | 1017.0 |
| 20260509222038 | 13 | 190 | 6.4 | 11.3 | 0.00 | 0.00 | 0.00 | 57 | 1016.9 |
| 20260509221027 | 13 | 211 | 6.4 | 11.3 | 0.00 | 0.00 | 0.00 | 56 | 1017.0 |
| 20260509220019 | 13 | 297 | 6.4 | 12.9 | 0.00 | 0.00 | 0.00 | 55 | 1017.2 |
| 20260509215019 | 13 | 151 | 6.4 | 16.1 | 0.00 | 0.00 | 0.00 | 54 | 1017.0 |
| 20260509214028 | 13 | 68 | 4.8 | 9.7 | 0.00 | 0.00 | 0.00 | 54 | 1017.1 |
| 20260509213019 | 13 | 359 | 6.4 | 17.7 | 0.00 | 0.00 | 0.00 | 55 | 1017.1 |
| 20260509212019 | 13 | 133 | 8.0 | 20.9 | 0.00 | 0.00 | 0.00 | 56 | 1017.0 |
| 20260509211040 | 13 | 202 | 8.0 | 12.9 | 0.00 | 0.00 | 0.00 | 56 | 1017.0 |
| 20260509210048 | 13 | 156 | 4.8 | 11.3 | 0.00 | 0.00 | 0.00 | 57 | 1017.0 |
| 20260509205028 | 13 | 326 | 6.4 | 11.3 | 0.00 | 0.00 | 0.00 | 56 | 1016.9 |
| 20260509204019 | 13 | 111 | 8.0 | 17.7 | 0.00 | 0.00 | 0.00 | 56 | 1016.9 |
| 20260509203020 | 13 | 196 | 6.4 | 12.9 | 0.00 | 0.00 | 0.00 | 56 | 1016.8 |
| 20260509202028 | 13 | 61 | 6.4 | 11.3 | 0.00 | 0.00 | 0.00 | 56 | 1016.7 |
| 20260509201049 | 14 | 280 | 6.4 | 12.9 | 0.00 | 0.00 | 0.00 | 56 | 1016.6 |
| 20260509200040 | 14 | 225 | 6.4 | 16.1 | 0.00 | 0.00 | 0.00 | 55 | 1016.5 |
| 20260509195028 | 15 | 280 | 6.4 | 14.5 | 0.00 | 0.00 | 0.00 | 55 | 1016.5 |
| 20260509194029 | 15 | 73 | 4.8 | 8.0 | 0.00 | 0.00 | 0.00 | 55 | 1016.4 |
| 20260509193040 | 15 | 347 | 6.4 | 16.1 | 0.00 | 0.00 | 0.00 | 55 | 1016.5 |
| 20260509192029 | 15 | 310 | 3.2 | 8.0 | 0.00 | 0.00 | 0.00 | 56 | 1016.4 |
| 20260509191049 | 16 | 271 | 3.2 | 9.7 | 0.00 | 0.00 | 0.00 | 55 | 1016.5 |
| 20260509190020 | 16 | 56 | 4.8 | 11.3 | 0.00 | 0.00 | 0.00 | 54 | 1016.4 |
| 20260509185029 | 16 | 267 | 8.0 | 12.9 | 0.00 | 0.00 | 0.00 | 54 | 1016.4 |
| 20260509184030 | 17 | 256 | 6.4 | 12.9 | 0.00 | 0.00 | 0.00 | 54 | 1016.3 |
| 20260509183021 | 17 | 294 | 8.0 | 14.5 | 0.00 | 0.00 | 0.00 | 53 | 1016.2 |
| 20260509182050 | 18 | 277 | 6.4 | 9.7 | 0.00 | 0.00 | 0.00 | 53 | 1016.1 |
| 20260509181030 | 18 | 286 | 4.8 | 9.7 | 0.00 | 0.00 | 0.00 | 52 | 1016.2 |
| 20260509180030 | 18 | 316 | 8.0 | 12.9 | 0.00 | 0.00 | 0.00 | 52 | 1016.2 |
| 20260509175021 | 18 | 283 | 4.8 | 12.9 | 0.00 | 0.00 | 0.00 | 51 | 1016.3 |
| 20260509174030 | 19 | 277 | 8.0 | 14.5 | 0.00 | 0.00 | 0.00 | 50 | 1016.2 |
| 20260509173021 | 19 | 207 | 6.4 | 19.3 | 0.00 | 0.00 | 0.00 | 49 | 1016.1 |
| 20260509172021 | 20 | 148 | 6.4 | 14.5 | 0.00 | 0.00 | 0.00 | 46 | 1016.0 |
| 20260509171022 | 20 | 157 | 8.0 | 14.5 | 0.00 | 0.00 | 0.00 | 46 | 1015.9 |
| 20260509170021 | 20 | 80 | 8.0 | 19.3 | 0.00 | 0.00 | 0.00 | 45 | 1015.8 |
| 20260509165030 | 20 | 267 | 3.2 | 9.7 | 0.00 | 0.00 | 0.00 | 46 | 1016.0 |
| 20260509164051 | 21 | 167 | 6.4 | 11.3 | 0.00 | 0.00 | 0.00 | 44 | 1016.1 |
| 20260509163022 | 21 | 230 | 6.4 | 11.3 | 0.00 | 0.00 | 0.00 | 44 | 1016.0 |
| 20260509162022 | 21 | 129 | 9.7 | 17.7 | 0.00 | 0.00 | 0.00 | 44 | 1016.0 |
| 20260509161031 | 21 | 279 | 6.4 | 11.3 | 0.00 | 0.00 | 0.00 | 44 | 1016.0 |
| 20260509160022 | 21 | 265 | 8.0 | 17.7 | 0.00 | 0.00 | 0.00 | 44 | 1015.9 |
| 20260509155022 | 21 | 99 | 6.4 | 16.1 | 0.00 | 0.00 | 0.00 | 45 | 1016.0 |
| 20260509154022 | 21 | 114 | 8.0 | 22.5 | 0.00 | 0.00 | 0.00 | 44 | 1016.0 |
| 20260509153017 | 21 | 169 | 6.4 | 17.7 | 0.00 | 0.00 | 0.00 | 44 | 1016.2 |
| 20260509152016 | 21 | 68 | 9.7 | 22.5 | 0.00 | 0.00 | 0.00 | 45 | 1016.4 |
| 20260509151103 | 21 | 159 | 6.4 | 12.9 | 0.00 | 0.00 | 0.00 | 44 | 1016.5 |
| 20260509150023 | 21 | 113 | 8.0 | 20.9 | 0.00 | 0.00 | 0.00 | 44 | 1016.5 |
| 20260509145023 | 21 | 100 | 14.5 | 25.7 | 0.00 | 0.00 | 0.00 | 43 | 1016.7 |
| 20260509144017 | 21 | 88 | 8.0 | 22.5 | 0.00 | 0.00 | 0.00 | 43 | 1016.8 |
| 20260509143017 | 21 | 113 | 9.7 | 22.5 | 0.00 | 0.00 | 0.00 | 43 | 1016.8 |
| 20260509142017 | 20 | 94 | 9.7 | 25.7 | 0.00 | 0.00 | 0.00 | 44 | 1016.7 |
| 20260509141058 | 20 | 99 | 9.7 | 17.7 | 0.00 | 0.00 | 0.00 | 44 | 1016.6 |
| 20260509140018 | 20 | 96 | 9.7 | 25.7 | 0.00 | 0.00 | 0.00 | 44 | 1016.4 |
| 20260509135038 | 20 | 93 | 11.3 | 33.8 | 0.00 | 0.00 | 0.00 | 44 | 1016.5 |
| 20260509134018 | 20 | 104 | 9.7 | 19.3 | 0.00 | 0.00 | 0.00 | 44 | 1016.5 |
| 20260509133024 | 20 | 89 | 9.7 | 27.4 | 0.00 | 0.00 | 0.00 | 45 | 1016.5 |
| 20260509132024 | 20 | 109 | 9.7 | 22.5 | 0.00 | 0.00 | 0.00 | 44 | 1016.7 |
| 20260509131018 | 20 | 59 | 11.3 | 27.4 | 0.00 | 0.00 | 0.00 | 44 | 1016.8 |
| 20260509130018 | 20 | 105 | 11.3 | 30.6 | 0.00 | 0.00 | 0.00 | 45 | 1016.7 |
| 20260509125016 | 21 | 106 | 12.9 | 19.3 | 0.00 | 0.00 | 0.00 | 45 | 1016.6 |
| 20260509124018 | 20 | 81 | 6.4 | 16.1 | 0.00 | 0.00 | 0.00 | 47 | 1016.5 |
| 20260509123118 | 20 | 120 | 9.7 | 20.9 | 0.00 | 0.00 | 0.00 | 46 | 1016.7 |
| 20260509122059 | 20 | 177 | 6.4 | 14.5 | 0.00 | 0.00 | 0.00 | 46 | 1016.8 |
| 20260509121018 | 20 | 94 | 8.0 | 19.3 | 0.00 | 0.00 | 0.00 | 47 | 1017.0 |
| 20260509120059 | 21 | 92 | 11.3 | 40.2 | 0.00 | 0.00 | 0.00 | 45 | 1017.0 |
| 20260509115017 | 21 | 95 | 8.0 | 14.5 | 0.00 | 0.00 | 0.00 | 46 | 1017.2 |
| 20260509114037 | 20 | 286 | 8.0 | 14.5 | 0.00 | 0.00 | 0.00 | 45 | 1017.3 |
| 20260509113017 | 20 | 288 | 6.4 | 14.5 | 0.00 | 0.00 | 0.00 | 45 | 1017.4 |
| 20260509112017 | 20 | 83 | 9.7 | 20.9 | 0.00 | 0.00 | 0.00 | 46 | 1017.5 |
| 20260509111019 | 20 | 127 | 11.3 | 24.1 | 0.00 | 0.00 | 0.00 | 48 | 1017.6 |
| 20260509110019 | 20 | 173 | 8.0 | 16.1 | 0.00 | 0.00 | 0.00 | 49 | 1017.7 |
| 20260509105019 | 19 | 102 | 8.0 | 19.3 | 0.00 | 0.00 | 0.00 | 49 | 1017.7 |
| 20260509104037 | 19 | 100 | 6.4 | 14.5 | 0.00 | 0.00 | 0.00 | 51 | 1017.8 |
| 20260509103037 | 19 | 277 | 8.0 | 12.9 | 0.00 | 0.00 | 0.00 | 50 | 1017.9 |
| 20260509102018 | 19 | 90 | 9.7 | 20.9 | 0.00 | 0.00 | 0.00 | 52 | 1018.0 |
| 20260509101018 | 18 | 110 | 8.0 | 19.3 | 0.00 | 0.00 | 0.00 | 54 | 1017.9 |
| 20260509100018 | 18 | 106 | 9.7 | 20.9 | 0.00 | 0.00 | 0.00 | 54 | 1018.0 |
| 20260509095018 | 18 | 106 | 11.3 | 25.7 | 0.00 | 0.00 | 0.00 | 53 | 1018.1 |
| 20260509094018 | 18 | 110 | 6.4 | 11.3 | 0.00 | 0.00 | 0.00 | 54 | 1018.1 |
| 20260509093018 | 18 | 88 | 8.0 | 12.9 | 0.00 | 0.00 | 0.00 | 56 | 1018.1 |